sensor_id;sensor_type;location;lat;lon;timestamp;temperature;humidity
35804;DHT22;21924;51.934;7.414;2024-03-29T00:02:37;7.00;99.90
35804;DHT22;21924;51.934;7.414;2024-03-29T00:05:22;7.00;99.90
35804;DHT22;21924;51.934;7.414;2024-03-29T00:08:06;7.10;99.90
35804;DHT22;21924;51.934;7.414;2024-03-29T00:10:50;7.00;99.90
35804;DHT22;21924;51.934;7.414;2024-03-29T00:13:34;6.90;99.90
35804;DHT22;21924;51.934;7.414;2024-03-29T00:16:19;6.90;99.90
35804;DHT22;21924;51.934;7.414;2024-03-29T00:19:03;7.00;99.90
35804;DHT22;21924;51.934;7.414;2024-03-29T00:21:48;6.90;99.90
35804;DHT22;21924;51.934;7.414;2024-03-29T00:24:33;6.90;99.90
35804;DHT22;21924;51.934;7.414;2024-03-29T00:27:17;6.90;99.90
35804;DHT22;21924;51.934;7.414;2024-03-29T00:30:01;6.90;99.90
35804;DHT22;21924;51.934;7.414;2024-03-29T00:32:45;6.80;99.90
35804;DHT22;21924;51.934;7.414;2024-03-29T00:35:30;6.80;99.90
35804;DHT22;21924;51.934;7.414;2024-03-29T00:38:15;6.80;99.90
35804;DHT22;21924;51.934;7.414;2024-03-29T00:40:59;6.80;99.90
35804;DHT22;21924;51.934;7.414;2024-03-29T00:43:43;6.70;99.90
35804;DHT22;21924;51.934;7.414;2024-03-29T00:46:27;6.70;99.90
35804;DHT22;21924;51.934;7.414;2024-03-29T00:49:12;6.60;99.90
35804;DHT22;21924;51.934;7.414;2024-03-29T00:51:56;6.80;99.90
35804;DHT22;21924;51.934;7.414;2024-03-29T00:54:40;6.90;99.90
35804;DHT22;21924;51.934;7.414;2024-03-29T00:57:24;6.80;99.90
35804;DHT22;21924;51.934;7.414;2024-03-29T01:00:09;6.70;99.90
35804;DHT22;21924;51.934;7.414;2024-03-29T01:02:54;6.70;99.90
35804;DHT22;21924;51.934;7.414;2024-03-29T01:05:38;6.60;99.90
35804;DHT22;21924;51.934;7.414;2024-03-29T01:08:23;6.60;99.90
35804;DHT22;21924;51.934;7.414;2024-03-29T01:11:07;6.50;99.90
35804;DHT22;21924;51.934;7.414;2024-03-29T01:13:52;6.60;99.90
35804;DHT22;21924;51.934;7.414;2024-03-29T01:16:36;6.50;99.90
35804;DHT22;21924;51.934;7.414;2024-03-29T01:19:21;6.60;99.90
35804;DHT22;21924;51.934;7.414;2024-03-29T01:22:05;6.60;99.90
35804;DHT22;21924;51.934;7.414;2024-03-29T01:24:49;6.60;99.90
35804;DHT22;21924;51.934;7.414;2024-03-29T01:27:33;6.60;99.90
35804;DHT22;21924;51.934;7.414;2024-03-29T01:30:18;6.50;99.90
35804;DHT22;21924;51.934;7.414;2024-03-29T01:33:02;6.60;99.90
35804;DHT22;21924;51.934;7.414;2024-03-29T01:35:46;6.50;99.90
35804;DHT22;21924;51.934;7.414;2024-03-29T01:38:31;6.50;99.90
35804;DHT22;21924;51.934;7.414;2024-03-29T01:41:15;6.50;99.90
35804;DHT22;21924;51.934;7.414;2024-03-29T01:43:59;6.50;99.90
35804;DHT22;21924;51.934;7.414;2024-03-29T01:46:43;6.60;99.90
35804;DHT22;21924;51.934;7.414;2024-03-29T01:49:29;6.60;99.90
35804;DHT22;21924;51.934;7.414;2024-03-29T01:52:16;6.70;99.90
35804;DHT22;21924;51.934;7.414;2024-03-29T01:55:01;6.70;99.90
35804;DHT22;21924;51.934;7.414;2024-03-29T01:57:45;6.60;99.90
35804;DHT22;21924;51.934;7.414;2024-03-29T02:00:33;6.60;99.90
35804;DHT22;21924;51.934;7.414;2024-03-29T02:03:17;6.70;99.90
35804;DHT22;21924;51.934;7.414;2024-03-29T02:06:01;6.70;99.90
35804;DHT22;21924;51.934;7.414;2024-03-29T02:08:49;6.70;99.90
35804;DHT22;21924;51.934;7.414;2024-03-29T02:11:34;6.60;99.90
35804;DHT22;21924;51.934;7.414;2024-03-29T02:14:19;6.70;99.90
35804;DHT22;21924;51.934;7.414;2024-03-29T02:17:03;6.70;99.90
35804;DHT22;21924;51.934;7.414;2024-03-29T02:19:47;6.60;99.90
35804;DHT22;21924;51.934;7.414;2024-03-29T02:22:31;6.70;99.90
35804;DHT22;21924;51.934;7.414;2024-03-29T02:25:16;6.70;99.90
35804;DHT22;21924;51.934;7.414;2024-03-29T02:28:01;6.70;99.90
35804;DHT22;21924;51.934;7.414;2024-03-29T02:30:45;6.80;99.90
35804;DHT22;21924;51.934;7.414;2024-03-29T02:33:30;6.80;99.90
35804;DHT22;21924;51.934;7.414;2024-03-29T02:36:14;6.80;99.90
35804;DHT22;21924;51.934;7.414;2024-03-29T02:38:58;6.90;99.90
35804;DHT22;21924;51.934;7.414;2024-03-29T02:41:43;7.00;99.90
35804;DHT22;21924;51.934;7.414;2024-03-29T02:44:27;7.00;99.90
35804;DHT22;21924;51.934;7.414;2024-03-29T02:47:11;7.00;99.90
35804;DHT22;21924;51.934;7.414;2024-03-29T02:49:56;7.10;99.90
35804;DHT22;21924;51.934;7.414;2024-03-29T02:52:40;7.30;99.90
35804;DHT22;21924;51.934;7.414;2024-03-29T02:55:26;7.30;99.90
35804;DHT22;21924;51.934;7.414;2024-03-29T02:58:10;7.30;99.90
35804;DHT22;21924;51.934;7.414;2024-03-29T03:00:54;7.40;99.90
35804;DHT22;21924;51.934;7.414;2024-03-29T03:03:39;7.40;99.90
35804;DHT22;21924;51.934;7.414;2024-03-29T03:06:23;7.50;99.90
35804;DHT22;21924;51.934;7.414;2024-03-29T03:09:07;7.50;99.90
35804;DHT22;21924;51.934;7.414;2024-03-29T03:12:10;7.50;99.90
35804;DHT22;21924;51.934;7.414;2024-03-29T03:14:55;7.50;99.90
35804;DHT22;21924;51.934;7.414;2024-03-29T03:17:39;7.60;99.90
35804;DHT22;21924;51.934;7.414;2024-03-29T03:20:23;7.60;99.90
35804;DHT22;21924;51.934;7.414;2024-03-29T03:23:11;7.50;99.90
35804;DHT22;21924;51.934;7.414;2024-03-29T03:25:56;7.60;99.90
35804;DHT22;21924;51.934;7.414;2024-03-29T03:28:41;7.60;99.90
35804;DHT22;21924;51.934;7.414;2024-03-29T03:31:25;7.60;99.90
35804;DHT22;21924;51.934;7.414;2024-03-29T03:34:09;7.60;99.90
35804;DHT22;21924;51.934;7.414;2024-03-29T03:36:54;7.80;99.90
35804;DHT22;21924;51.934;7.414;2024-03-29T03:39:38;7.70;99.90
35804;DHT22;21924;51.934;7.414;2024-03-29T03:42:22;7.70;99.90
35804;DHT22;21924;51.934;7.414;2024-03-29T03:45:07;7.70;99.90
35804;DHT22;21924;51.934;7.414;2024-03-29T03:47:51;7.80;99.90
35804;DHT22;21924;51.934;7.414;2024-03-29T03:50:35;7.80;99.90
35804;DHT22;21924;51.934;7.414;2024-03-29T03:53:20;7.80;99.90
35804;DHT22;21924;51.934;7.414;2024-03-29T03:56:04;7.70;99.90
35804;DHT22;21924;51.934;7.414;2024-03-29T03:58:48;7.80;99.90
35804;DHT22;21924;51.934;7.414;2024-03-29T04:01:34;7.80;99.90
35804;DHT22;21924;51.934;7.414;2024-03-29T04:04:18;7.80;99.90
35804;DHT22;21924;51.934;7.414;2024-03-29T04:07:02;7.80;99.90
35804;DHT22;21924;51.934;7.414;2024-03-29T04:09:49;7.80;99.90
35804;DHT22;21924;51.934;7.414;2024-03-29T04:12:33;7.80;99.90
35804;DHT22;21924;51.934;7.414;2024-03-29T04:15:18;7.90;99.90
35804;DHT22;21924;51.934;7.414;2024-03-29T04:18:02;7.80;99.90
35804;DHT22;21924;51.934;7.414;2024-03-29T04:20:46;7.80;99.90
35804;DHT22;21924;51.934;7.414;2024-03-29T04:23:31;7.80;99.90
35804;DHT22;21924;51.934;7.414;2024-03-29T04:26:15;7.80;99.90
35804;DHT22;21924;51.934;7.414;2024-03-29T04:29:00;7.70;99.90
35804;DHT22;21924;51.934;7.414;2024-03-29T04:31:45;7.70;99.90
35804;DHT22;21924;51.934;7.414;2024-03-29T04:34:29;7.60;99.90
35804;DHT22;21924;51.934;7.414;2024-03-29T04:37:13;7.60;99.90
35804;DHT22;21924;51.934;7.414;2024-03-29T04:39:57;7.60;99.90
35804;DHT22;21924;51.934;7.414;2024-03-29T04:42:41;7.50;99.90
35804;DHT22;21924;51.934;7.414;2024-03-29T04:45:26;7.50;99.90
35804;DHT22;21924;51.934;7.414;2024-03-29T04:48:10;7.50;99.90
35804;DHT22;21924;51.934;7.414;2024-03-29T04:50:55;7.50;99.90
35804;DHT22;21924;51.934;7.414;2024-03-29T04:53:39;7.50;99.90
35804;DHT22;21924;51.934;7.414;2024-03-29T04:56:23;7.50;99.90
35804;DHT22;21924;51.934;7.414;2024-03-29T04:59:07;7.50;99.90
35804;DHT22;21924;51.934;7.414;2024-03-29T05:01:54;7.60;99.90
35804;DHT22;21924;51.934;7.414;2024-03-29T05:04:40;7.70;99.90
35804;DHT22;21924;51.934;7.414;2024-03-29T05:07:24;7.70;99.90
35804;DHT22;21924;51.934;7.414;2024-03-29T05:10:09;7.60;99.90
35804;DHT22;21924;51.934;7.414;2024-03-29T05:12:56;7.60;99.90
35804;DHT22;21924;51.934;7.414;2024-03-29T05:15:40;7.60;99.90
35804;DHT22;21924;51.934;7.414;2024-03-29T05:18:24;7.60;99.90
35804;DHT22;21924;51.934;7.414;2024-03-29T05:21:09;7.50;99.90
35804;DHT22;21924;51.934;7.414;2024-03-29T05:23:53;7.50;99.90
35804;DHT22;21924;51.934;7.414;2024-03-29T05:26:38;7.50;99.90
35804;DHT22;21924;51.934;7.414;2024-03-29T05:29:22;7.40;99.90
35804;DHT22;21924;51.934;7.414;2024-03-29T05:32:06;7.40;99.90
35804;DHT22;21924;51.934;7.414;2024-03-29T05:34:51;7.40;99.90
35804;DHT22;21924;51.934;7.414;2024-03-29T05:37:36;7.30;99.90
35804;DHT22;21924;51.934;7.414;2024-03-29T05:40:20;7.30;99.90
35804;DHT22;21924;51.934;7.414;2024-03-29T05:43:11;7.30;99.90
35804;DHT22;21924;51.934;7.414;2024-03-29T05:45:55;7.20;99.90
35804;DHT22;21924;51.934;7.414;2024-03-29T05:48:39;7.20;99.90
35804;DHT22;21924;51.934;7.414;2024-03-29T05:51:23;7.20;99.90
35804;DHT22;21924;51.934;7.414;2024-03-29T05:54:08;7.20;99.90
35804;DHT22;21924;51.934;7.414;2024-03-29T05:56:52;7.20;99.90
35804;DHT22;21924;51.934;7.414;2024-03-29T05:59:36;7.20;99.90
35804;DHT22;21924;51.934;7.414;2024-03-29T06:02:20;7.20;99.90
35804;DHT22;21924;51.934;7.414;2024-03-29T06:05:05;7.20;99.90
35804;DHT22;21924;51.934;7.414;2024-03-29T06:07:49;7.20;99.90
35804;DHT22;21924;51.934;7.414;2024-03-29T06:10:33;7.10;99.90
35804;DHT22;21924;51.934;7.414;2024-03-29T06:13:18;7.20;99.90
35804;DHT22;21924;51.934;7.414;2024-03-29T06:16:13;7.20;99.90
35804;DHT22;21924;51.934;7.414;2024-03-29T06:19:16;7.20;99.90
35804;DHT22;21924;51.934;7.414;2024-03-29T06:22:01;7.20;99.90
35804;DHT22;21924;51.934;7.414;2024-03-29T06:24:45;7.20;99.90
35804;DHT22;21924;51.934;7.414;2024-03-29T06:27:31;7.20;99.90
35804;DHT22;21924;51.934;7.414;2024-03-29T06:30:16;7.20;99.90
35804;DHT22;21924;51.934;7.414;2024-03-29T06:33:00;7.20;99.90
35804;DHT22;21924;51.934;7.414;2024-03-29T06:35:52;7.20;99.90
35804;DHT22;21924;51.934;7.414;2024-03-29T06:38:36;7.30;99.90
35804;DHT22;21924;51.934;7.414;2024-03-29T06:41:21;7.30;99.90
35804;DHT22;21924;51.934;7.414;2024-03-29T06:44:05;7.30;99.90
35804;DHT22;21924;51.934;7.414;2024-03-29T06:46:49;7.30;99.90
35804;DHT22;21924;51.934;7.414;2024-03-29T06:49:33;7.30;99.90
35804;DHT22;21924;51.934;7.414;2024-03-29T06:52:18;7.30;99.90
35804;DHT22;21924;51.934;7.414;2024-03-29T06:55:02;7.40;99.90
35804;DHT22;21924;51.934;7.414;2024-03-29T06:57:47;7.40;99.90
35804;DHT22;21924;51.934;7.414;2024-03-29T07:00:32;7.40;99.90
35804;DHT22;21924;51.934;7.414;2024-03-29T07:03:16;7.40;99.90
35804;DHT22;21924;51.934;7.414;2024-03-29T07:06:02;7.40;99.90
35804;DHT22;21924;51.934;7.414;2024-03-29T07:08:46;7.40;99.90
35804;DHT22;21924;51.934;7.414;2024-03-29T07:11:31;7.40;99.90
35804;DHT22;21924;51.934;7.414;2024-03-29T07:14:15;7.50;99.90
35804;DHT22;21924;51.934;7.414;2024-03-29T07:16:59;7.50;99.90
35804;DHT22;21924;51.934;7.414;2024-03-29T07:19:44;7.50;99.90
35804;DHT22;21924;51.934;7.414;2024-03-29T07:22:28;7.50;99.90
35804;DHT22;21924;51.934;7.414;2024-03-29T07:25:12;7.40;99.90
35804;DHT22;21924;51.934;7.414;2024-03-29T07:27:56;7.50;99.90
35804;DHT22;21924;51.934;7.414;2024-03-29T07:30:41;7.50;99.90
35804;DHT22;21924;51.934;7.414;2024-03-29T07:33:25;7.70;99.90
35804;DHT22;21924;51.934;7.414;2024-03-29T07:36:10;7.80;99.90
35804;DHT22;21924;51.934;7.414;2024-03-29T07:38:54;7.80;99.90
35804;DHT22;21924;51.934;7.414;2024-03-29T07:41:39;7.80;99.90
35804;DHT22;21924;51.934;7.414;2024-03-29T07:44:23;7.80;99.90
35804;DHT22;21924;51.934;7.414;2024-03-29T07:47:07;7.90;99.90
35804;DHT22;21924;51.934;7.414;2024-03-29T07:49:51;7.90;99.90
35804;DHT22;21924;51.934;7.414;2024-03-29T07:52:35;7.90;99.90
35804;DHT22;21924;51.934;7.414;2024-03-29T07:55:20;8.00;99.90
35804;DHT22;21924;51.934;7.414;2024-03-29T07:58:04;8.10;99.90
35804;DHT22;21924;51.934;7.414;2024-03-29T08:00:49;8.20;99.90
35804;DHT22;21924;51.934;7.414;2024-03-29T08:03:33;8.40;99.90
35804;DHT22;21924;51.934;7.414;2024-03-29T08:06:18;8.40;99.90
35804;DHT22;21924;51.934;7.414;2024-03-29T08:09:03;8.30;99.90
35804;DHT22;21924;51.934;7.414;2024-03-29T08:11:47;8.30;99.90
35804;DHT22;21924;51.934;7.414;2024-03-29T08:14:32;8.40;99.90
35804;DHT22;21924;51.934;7.414;2024-03-29T08:17:16;8.40;99.90
35804;DHT22;21924;51.934;7.414;2024-03-29T08:20:00;8.40;99.90
35804;DHT22;21924;51.934;7.414;2024-03-29T08:22:45;8.50;99.90
35804;DHT22;21924;51.934;7.414;2024-03-29T08:25:29;8.60;99.90
35804;DHT22;21924;51.934;7.414;2024-03-29T08:28:14;8.70;99.90
35804;DHT22;21924;51.934;7.414;2024-03-29T08:31:04;8.70;99.90
35804;DHT22;21924;51.934;7.414;2024-03-29T08:33:50;8.70;99.90
35804;DHT22;21924;51.934;7.414;2024-03-29T08:36:34;8.90;99.90
35804;DHT22;21924;51.934;7.414;2024-03-29T08:39:18;9.10;99.90
35804;DHT22;21924;51.934;7.414;2024-03-29T08:42:03;9.40;99.90
35804;DHT22;21924;51.934;7.414;2024-03-29T08:44:52;9.60;99.90
35804;DHT22;21924;51.934;7.414;2024-03-29T08:47:37;9.70;99.90
35804;DHT22;21924;51.934;7.414;2024-03-29T08:50:21;9.90;99.90
35804;DHT22;21924;51.934;7.414;2024-03-29T08:53:05;10.00;99.90
35804;DHT22;21924;51.934;7.414;2024-03-29T08:55:50;10.00;99.90
35804;DHT22;21924;51.934;7.414;2024-03-29T08:58:34;10.10;99.90
35804;DHT22;21924;51.934;7.414;2024-03-29T09:01:18;10.10;99.90
35804;DHT22;21924;51.934;7.414;2024-03-29T09:04:02;10.10;99.90
35804;DHT22;21924;51.934;7.414;2024-03-29T09:06:48;10.10;99.90
35804;DHT22;21924;51.934;7.414;2024-03-29T09:09:32;10.20;99.90
35804;DHT22;21924;51.934;7.414;2024-03-29T09:12:17;10.60;99.90
35804;DHT22;21924;51.934;7.414;2024-03-29T09:15:02;10.60;99.90
35804;DHT22;21924;51.934;7.414;2024-03-29T09:17:46;10.80;99.90
35804;DHT22;21924;51.934;7.414;2024-03-29T09:20:31;10.80;99.90
35804;DHT22;21924;51.934;7.414;2024-03-29T09:23:15;10.70;99.90
35804;DHT22;21924;51.934;7.414;2024-03-29T09:26:04;10.70;99.90
35804;DHT22;21924;51.934;7.414;2024-03-29T09:28:47;10.70;99.90
35804;DHT22;21924;51.934;7.414;2024-03-29T09:31:32;10.80;99.90
35804;DHT22;21924;51.934;7.414;2024-03-29T09:34:16;10.80;99.90
35804;DHT22;21924;51.934;7.414;2024-03-29T09:37:00;10.80;99.90
35804;DHT22;21924;51.934;7.414;2024-03-29T09:39:44;10.90;99.90
35804;DHT22;21924;51.934;7.414;2024-03-29T09:42:29;10.80;99.90
35804;DHT22;21924;51.934;7.414;2024-03-29T09:45:15;10.90;99.90
35804;DHT22;21924;51.934;7.414;2024-03-29T09:48:04;11.00;99.90
35804;DHT22;21924;51.934;7.414;2024-03-29T09:50:48;10.90;99.90
35804;DHT22;21924;51.934;7.414;2024-03-29T09:53:34;10.90;99.90
35804;DHT22;21924;51.934;7.414;2024-03-29T09:56:18;10.80;99.90
35804;DHT22;21924;51.934;7.414;2024-03-29T09:59:02;10.80;99.90
35804;DHT22;21924;51.934;7.414;2024-03-29T10:01:47;10.70;99.90
35804;DHT22;21924;51.934;7.414;2024-03-29T10:04:32;10.50;99.90
35804;DHT22;21924;51.934;7.414;2024-03-29T10:07:16;10.60;99.90
35804;DHT22;21924;51.934;7.414;2024-03-29T10:10:00;10.60;99.90
35804;DHT22;21924;51.934;7.414;2024-03-29T10:12:44;10.60;99.90
35804;DHT22;21924;51.934;7.414;2024-03-29T10:15:29;10.50;99.90
35804;DHT22;21924;51.934;7.414;2024-03-29T10:18:16;10.50;99.90
35804;DHT22;21924;51.934;7.414;2024-03-29T10:21:05;10.40;99.90
35804;DHT22;21924;51.934;7.414;2024-03-29T10:23:50;10.50;99.90
35804;DHT22;21924;51.934;7.414;2024-03-29T10:26:36;10.70;99.90
35804;DHT22;21924;51.934;7.414;2024-03-29T10:29:27;10.80;99.90
35804;DHT22;21924;51.934;7.414;2024-03-29T10:32:11;10.90;99.90
35804;DHT22;21924;51.934;7.414;2024-03-29T10:34:55;10.90;99.90
35804;DHT22;21924;51.934;7.414;2024-03-29T10:37:41;10.80;99.90
35804;DHT22;21924;51.934;7.414;2024-03-29T10:40:27;10.70;99.90
35804;DHT22;21924;51.934;7.414;2024-03-29T10:43:11;10.60;99.90
35804;DHT22;21924;51.934;7.414;2024-03-29T10:46:00;10.70;99.90
35804;DHT22;21924;51.934;7.414;2024-03-29T10:48:44;10.80;99.90
35804;DHT22;21924;51.934;7.414;2024-03-29T10:51:30;11.00;99.90
35804;DHT22;21924;51.934;7.414;2024-03-29T10:54:15;11.20;99.90
35804;DHT22;21924;51.934;7.414;2024-03-29T10:57:07;11.20;99.90
35804;DHT22;21924;51.934;7.414;2024-03-29T11:00:02;11.40;99.90
35804;DHT22;21924;51.934;7.414;2024-03-29T11:02:59;11.50;99.90
35804;DHT22;21924;51.934;7.414;2024-03-29T11:05:48;11.60;99.90
35804;DHT22;21924;51.934;7.414;2024-03-29T11:08:34;11.80;99.90
35804;DHT22;21924;51.934;7.414;2024-03-29T11:11:29;11.90;99.90
35804;DHT22;21924;51.934;7.414;2024-03-29T11:14:20;12.00;99.90
35804;DHT22;21924;51.934;7.414;2024-03-29T11:17:07;12.00;99.90
35804;DHT22;21924;51.934;7.414;2024-03-29T11:19:51;12.10;99.90
35804;DHT22;21924;51.934;7.414;2024-03-29T11:22:36;12.30;99.90
35804;DHT22;21924;51.934;7.414;2024-03-29T11:25:20;12.70;99.90
35804;DHT22;21924;51.934;7.414;2024-03-29T11:28:05;12.90;99.90
35804;DHT22;21924;51.934;7.414;2024-03-29T11:30:52;13.20;99.90
35804;DHT22;21924;51.934;7.414;2024-03-29T11:36:22;13.20;99.90
35804;DHT22;21924;51.934;7.414;2024-03-29T11:39:19;13.30;99.90
35804;DHT22;21924;51.934;7.414;2024-03-29T11:42:04;13.60;99.90
35804;DHT22;21924;51.934;7.414;2024-03-29T11:44:48;14.00;99.90
35804;DHT22;21924;51.934;7.414;2024-03-29T11:47:32;14.00;99.90
35804;DHT22;21924;51.934;7.414;2024-03-29T11:50:16;14.00;99.90
35804;DHT22;21924;51.934;7.414;2024-03-29T11:53:02;13.90;99.90
35804;DHT22;21924;51.934;7.414;2024-03-29T11:55:47;14.00;99.90
35804;DHT22;21924;51.934;7.414;2024-03-29T11:58:33;14.00;99.90
35804;DHT22;21924;51.934;7.414;2024-03-29T12:01:17;14.10;99.90
35804;DHT22;21924;51.934;7.414;2024-03-29T12:04:02;13.90;99.90
35804;DHT22;21924;51.934;7.414;2024-03-29T12:06:46;13.70;99.90
35804;DHT22;21924;51.934;7.414;2024-03-29T12:09:30;13.40;99.90
35804;DHT22;21924;51.934;7.414;2024-03-29T12:12:15;13.30;99.90
35804;DHT22;21924;51.934;7.414;2024-03-29T12:15:01;13.10;99.90
35804;DHT22;21924;51.934;7.414;2024-03-29T12:17:57;13.00;99.90
35804;DHT22;21924;51.934;7.414;2024-03-29T12:20:45;12.90;99.90
35804;DHT22;21924;51.934;7.414;2024-03-29T12:23:31;13.00;99.90
35804;DHT22;21924;51.934;7.414;2024-03-29T12:26:16;13.10;99.90
35804;DHT22;21924;51.934;7.414;2024-03-29T12:29:06;13.30;99.90
35804;DHT22;21924;51.934;7.414;2024-03-29T12:31:59;13.30;99.90
35804;DHT22;21924;51.934;7.414;2024-03-29T12:34:44;13.50;99.90
35804;DHT22;21924;51.934;7.414;2024-03-29T12:37:28;13.40;99.90
35804;DHT22;21924;51.934;7.414;2024-03-29T12:40:12;13.30;99.90
35804;DHT22;21924;51.934;7.414;2024-03-29T12:42:59;13.30;99.90
35804;DHT22;21924;51.934;7.414;2024-03-29T12:45:46;13.30;99.90
35804;DHT22;21924;51.934;7.414;2024-03-29T12:48:31;13.30;99.90
35804;DHT22;21924;51.934;7.414;2024-03-29T12:51:17;13.50;99.90
35804;DHT22;21924;51.934;7.414;2024-03-29T12:54:03;13.50;99.90
35804;DHT22;21924;51.934;7.414;2024-03-29T12:56:49;13.40;99.90
35804;DHT22;21924;51.934;7.414;2024-03-29T12:59:33;13.50;99.90
35804;DHT22;21924;51.934;7.414;2024-03-29T13:02:18;13.60;99.90
35804;DHT22;21924;51.934;7.414;2024-03-29T13:05:03;13.60;99.90
35804;DHT22;21924;51.934;7.414;2024-03-29T13:07:48;13.70;99.90
35804;DHT22;21924;51.934;7.414;2024-03-29T13:10:32;14.00;99.90
35804;DHT22;21924;51.934;7.414;2024-03-29T13:13:16;14.20;99.90
35804;DHT22;21924;51.934;7.414;2024-03-29T13:16:00;14.50;99.90
35804;DHT22;21924;51.934;7.414;2024-03-29T13:18:45;14.90;99.90
35804;DHT22;21924;51.934;7.414;2024-03-29T13:21:31;15.20;99.90
35804;DHT22;21924;51.934;7.414;2024-03-29T13:24:16;15.50;99.90
35804;DHT22;21924;51.934;7.414;2024-03-29T13:27:00;15.70;99.90
35804;DHT22;21924;51.934;7.414;2024-03-29T13:29:45;15.80;99.90
35804;DHT22;21924;51.934;7.414;2024-03-29T13:32:29;16.10;99.90
35804;DHT22;21924;51.934;7.414;2024-03-29T13:35:16;16.30;99.90
35804;DHT22;21924;51.934;7.414;2024-03-29T13:38:02;16.20;99.90
35804;DHT22;21924;51.934;7.414;2024-03-29T13:40:46;16.50;99.90
35804;DHT22;21924;51.934;7.414;2024-03-29T13:43:31;16.40;99.90
35804;DHT22;21924;51.934;7.414;2024-03-29T13:46:17;16.50;99.90
35804;DHT22;21924;51.934;7.414;2024-03-29T13:49:02;16.50;99.90
35804;DHT22;21924;51.934;7.414;2024-03-29T13:51:47;16.60;99.90
35804;DHT22;21924;51.934;7.414;2024-03-29T13:54:31;16.40;99.90
35804;DHT22;21924;51.934;7.414;2024-03-29T13:57:17;16.10;99.90
35804;DHT22;21924;51.934;7.414;2024-03-29T14:00:01;15.80;99.90
35804;DHT22;21924;51.934;7.414;2024-03-29T14:02:46;15.50;99.90
35804;DHT22;21924;51.934;7.414;2024-03-29T14:05:30;15.40;99.90
35804;DHT22;21924;51.934;7.414;2024-03-29T14:08:16;15.20;99.90
35804;DHT22;21924;51.934;7.414;2024-03-29T14:11:00;15.30;99.90
35804;DHT22;21924;51.934;7.414;2024-03-29T14:13:44;15.30;99.90
35804;DHT22;21924;51.934;7.414;2024-03-29T14:16:32;15.60;99.90
35804;DHT22;21924;51.934;7.414;2024-03-29T14:19:17;15.60;99.90
35804;DHT22;21924;51.934;7.414;2024-03-29T14:22:01;15.70;99.90
35804;DHT22;21924;51.934;7.414;2024-03-29T14:24:45;15.80;99.90
35804;DHT22;21924;51.934;7.414;2024-03-29T14:27:30;15.80;99.90
35804;DHT22;21924;51.934;7.414;2024-03-29T14:30:14;15.80;99.90
35804;DHT22;21924;51.934;7.414;2024-03-29T14:32:59;15.70;99.90
35804;DHT22;21924;51.934;7.414;2024-03-29T14:35:50;15.50;99.90
35804;DHT22;21924;51.934;7.414;2024-03-29T14:38:34;15.60;99.90
35804;DHT22;21924;51.934;7.414;2024-03-29T14:41:19;15.80;99.90
35804;DHT22;21924;51.934;7.414;2024-03-29T14:44:06;16.00;99.90
35804;DHT22;21924;51.934;7.414;2024-03-29T14:46:51;16.20;99.90
35804;DHT22;21924;51.934;7.414;2024-03-29T14:49:35;16.30;99.90
35804;DHT22;21924;51.934;7.414;2024-03-29T14:52:19;16.20;99.90
35804;DHT22;21924;51.934;7.414;2024-03-29T14:55:04;16.00;99.90
35804;DHT22;21924;51.934;7.414;2024-03-29T14:57:48;16.00;99.90
35804;DHT22;21924;51.934;7.414;2024-03-29T15:00:32;15.90;99.90
35804;DHT22;21924;51.934;7.414;2024-03-29T15:03:17;15.90;99.90
35804;DHT22;21924;51.934;7.414;2024-03-29T15:06:01;16.10;99.90
35804;DHT22;21924;51.934;7.414;2024-03-29T15:08:45;16.00;99.90
35804;DHT22;21924;51.934;7.414;2024-03-29T15:11:29;16.00;99.90
35804;DHT22;21924;51.934;7.414;2024-03-29T15:14:14;15.90;99.90
35804;DHT22;21924;51.934;7.414;2024-03-29T15:16:58;15.90;99.90
35804;DHT22;21924;51.934;7.414;2024-03-29T15:19:45;15.80;99.90
35804;DHT22;21924;51.934;7.414;2024-03-29T15:22:37;15.90;99.90
35804;DHT22;21924;51.934;7.414;2024-03-29T15:25:22;16.00;99.90
35804;DHT22;21924;51.934;7.414;2024-03-29T15:28:06;16.10;99.90
35804;DHT22;21924;51.934;7.414;2024-03-29T15:30:56;15.80;99.90
35804;DHT22;21924;51.934;7.414;2024-03-29T15:33:43;15.70;99.90
35804;DHT22;21924;51.934;7.414;2024-03-29T15:36:28;15.20;99.90
35804;DHT22;21924;51.934;7.414;2024-03-29T15:39:13;14.90;99.90
35804;DHT22;21924;51.934;7.414;2024-03-29T15:41:59;14.60;99.90
35804;DHT22;21924;51.934;7.414;2024-03-29T15:44:43;14.40;99.90
35804;DHT22;21924;51.934;7.414;2024-03-29T15:47:28;14.20;99.90
35804;DHT22;21924;51.934;7.414;2024-03-29T15:50:12;14.10;99.90
35804;DHT22;21924;51.934;7.414;2024-03-29T15:52:57;13.90;99.90
35804;DHT22;21924;51.934;7.414;2024-03-29T15:55:42;13.90;99.90
35804;DHT22;21924;51.934;7.414;2024-03-29T15:58:27;13.80;99.90
35804;DHT22;21924;51.934;7.414;2024-03-29T16:01:11;13.80;99.90
35804;DHT22;21924;51.934;7.414;2024-03-29T16:03:57;13.80;99.90
35804;DHT22;21924;51.934;7.414;2024-03-29T16:06:41;13.90;99.90
35804;DHT22;21924;51.934;7.414;2024-03-29T16:09:29;13.90;99.90
35804;DHT22;21924;51.934;7.414;2024-03-29T16:12:13;13.90;99.90
35804;DHT22;21924;51.934;7.414;2024-03-29T16:14:58;13.70;99.90
35804;DHT22;21924;51.934;7.414;2024-03-29T16:17:42;13.60;99.90
35804;DHT22;21924;51.934;7.414;2024-03-29T16:20:26;13.60;99.90
35804;DHT22;21924;51.934;7.414;2024-03-29T16:23:14;13.50;99.90
35804;DHT22;21924;51.934;7.414;2024-03-29T16:26:01;13.50;99.90
35804;DHT22;21924;51.934;7.414;2024-03-29T16:28:45;13.50;99.90
35804;DHT22;21924;51.934;7.414;2024-03-29T16:31:31;13.50;99.90
35804;DHT22;21924;51.934;7.414;2024-03-29T16:34:15;13.40;99.90
35804;DHT22;21924;51.934;7.414;2024-03-29T16:36:59;13.30;99.90
35804;DHT22;21924;51.934;7.414;2024-03-29T16:39:45;13.30;99.90
35804;DHT22;21924;51.934;7.414;2024-03-29T16:42:30;13.30;99.90
35804;DHT22;21924;51.934;7.414;2024-03-29T16:45:15;13.30;99.90
35804;DHT22;21924;51.934;7.414;2024-03-29T16:48:00;13.20;99.90
35804;DHT22;21924;51.934;7.414;2024-03-29T16:50:44;13.30;99.90
35804;DHT22;21924;51.934;7.414;2024-03-29T16:53:29;13.20;99.90
35804;DHT22;21924;51.934;7.414;2024-03-29T16:56:15;13.10;99.90
35804;DHT22;21924;51.934;7.414;2024-03-29T16:58:59;13.10;99.90
35804;DHT22;21924;51.934;7.414;2024-03-29T17:01:43;13.00;99.90
35804;DHT22;21924;51.934;7.414;2024-03-29T17:04:28;13.00;99.90
35804;DHT22;21924;51.934;7.414;2024-03-29T17:07:16;12.90;99.90
35804;DHT22;21924;51.934;7.414;2024-03-29T17:10:00;12.90;99.90
35804;DHT22;21924;51.934;7.414;2024-03-29T17:12:44;12.90;99.90
35804;DHT22;21924;51.934;7.414;2024-03-29T17:15:29;12.90;99.90
35804;DHT22;21924;51.934;7.414;2024-03-29T17:18:13;12.90;99.90
35804;DHT22;21924;51.934;7.414;2024-03-29T17:20:57;12.80;99.90
35804;DHT22;21924;51.934;7.414;2024-03-29T17:23:42;12.80;99.90
35804;DHT22;21924;51.934;7.414;2024-03-29T17:26:26;12.80;99.90
35804;DHT22;21924;51.934;7.414;2024-03-29T17:29:10;12.80;99.90
35804;DHT22;21924;51.934;7.414;2024-03-29T17:31:54;12.70;99.90
35804;DHT22;21924;51.934;7.414;2024-03-29T17:34:39;12.70;99.90